Time;durP1;ratioP1;P1;durP2;ratioP2;P2;SDS_P1;SDS_P2;PMS_P1;PMS_P2;Temp;Humidity;BMP_temperature;BMP_pressure;BME280_temperature;BME280_humidity;BME280_pressure;Samples;Min_cycle;Max_cycle;Signal;HPM_P1;HPM_P2
2021/08/07 00:01:08;;;;;;;3.72;3.42;;;16.10;99.90;;;;;;5072388;28;20219;-67
2021/08/07 00:03:36;;;;;;;5.45;3.25;;;16.10;99.90;;;;;;5072521;28;20207;-67
2021/08/07 00:06:24;;;;;;;3.65;2.92;;;16.00;99.90;;;;;;5072602;28;20185;-66
2021/08/07 00:08:52;;;;;;;3.97;3.17;;;16.10;99.90;;;;;;5072443;28;20207;-67
2021/08/07 00:11:20;;;;;;;3.33;3.03;;;16.00;99.90;;;;;;5072389;28;20254;-67
2021/08/07 00:13:49;;;;;;;4.07;3.13;;;16.10;99.90;;;;;;5072371;28;20240;-66
2021/08/07 00:16:17;;;;;;;3.50;3.20;;;16.10;99.90;;;;;;5072044;28;20205;-68
2021/08/07 00:18:45;;;;;;;3.75;3.30;;;16.10;99.90;;;;;;5072316;28;20196;-66
2021/08/07 00:21:13;;;;;;;3.22;2.92;;;16.00;99.90;;;;;;5071862;28;20811;-67
2021/08/07 00:23:41;;;;;;;6.15;3.00;;;16.10;99.90;;;;;;5060980;28;20291;-68
2021/08/07 00:26:08;;;;;;;3.67;3.35;;;16.10;99.90;;;;;;5051719;28;20677;-67
2021/08/07 00:28:36;;;;;;;3.53;3.20;;;16.20;99.90;;;;;;5052269;28;20312;-67
2021/08/07 00:31:06;;;;;;;3.10;2.80;;;16.20;99.90;;;;;;5052222;28;20315;-67
2021/08/07 00:33:34;;;;;;;4.05;2.85;;;16.20;99.90;;;;;;5052288;28;20215;-67
2021/08/07 00:36:02;;;;;;;3.38;2.97;;;16.20;99.90;;;;;;5052174;28;20296;-66
2021/08/07 00:38:30;;;;;;;4.65;2.80;;;16.30;99.90;;;;;;5052008;28;20312;-67
2021/08/07 00:40:58;;;;;;;4.05;2.83;;;16.20;99.90;;;;;;5051807;28;20259;-68
2021/08/07 00:43:26;;;;;;;3.85;2.92;;;16.30;99.90;;;;;;5051798;28;20201;-68
2021/08/07 00:45:53;;;;;;;3.10;2.78;;;16.30;99.90;;;;;;5051656;28;20240;-67
2021/08/07 00:48:24;;;;;;;2.70;2.50;;;16.30;99.90;;;;;;5052191;28;20308;-67
2021/08/07 00:50:52;;;;;;;4.70;2.72;;;16.20;99.90;;;;;;5051677;28;20627;-68
2021/08/07 00:53:20;;;;;;;3.00;2.70;;;16.50;99.90;;;;;;5051804;28;20300;-67
2021/08/07 00:55:49;;;;;;;3.47;2.97;;;16.20;99.90;;;;;;5064228;28;20322;-67
2021/08/07 00:58:17;;;;;;;4.03;2.80;;;16.10;99.90;;;;;;5071876;28;20316;-66
2021/08/07 01:00:44;;;;;;;3.10;2.80;;;16.00;99.90;;;;;;5071529;28;20213;-67
2021/08/07 01:03:22;;;;;;;4.40;2.90;;;15.90;99.90;;;;;;5071828;28;20292;-66
2021/08/07 01:05:58;;;;;;;3.63;2.92;;;15.80;99.90;;;;;;5072177;28;20184;-65
2021/08/07 01:08:31;;;;;;;4.20;2.88;;;15.80;99.90;;;;;;5071537;28;20724;-66
2021/08/07 01:11:06;;;;;;;3.33;2.90;;;15.70;99.90;;;;;;5071487;28;20272;-66
2021/08/07 01:13:38;;;;;;;2.90;2.50;;;15.70;99.90;;;;;;5071921;28;20271;-67
2021/08/07 01:16:10;;;;;;;3.55;2.85;;;15.60;99.90;;;;;;5071806;28;20185;-66
2021/08/07 01:18:40;;;;;;;4.15;2.97;;;15.50;99.90;;;;;;5071803;28;20193;-66
2021/08/07 01:21:15;;;;;;;3.70;2.90;;;15.50;99.90;;;;;;5071366;28;20224;-68
2021/08/07 01:23:49;;;;;;;2.80;2.60;;;15.40;99.90;;;;;;5071602;28;20196;-67
2021/08/07 01:26:24;;;;;;;3.28;2.97;;;15.40;99.90;;;;;;5071304;28;20643;-66
2021/08/07 01:28:58;;;;;;;3.50;3.20;;;15.30;99.90;;;;;;5071625;28;20191;-66
2021/08/07 01:31:27;;;;;;;5.40;3.50;;;15.30;99.90;;;;;;5071835;28;20277;-67
2021/08/07 01:33:56;;;;;;;4.35;3.40;;;15.40;99.90;;;;;;5071667;28;20203;-67
2021/08/07 01:36:24;;;;;;;3.85;3.10;;;15.40;99.90;;;;;;5072131;28;20740;-66
2021/08/07 01:38:52;;;;;;;4.00;3.00;;;15.50;99.90;;;;;;5075095;28;20201;-67
2021/08/07 01:41:21;;;;;;;4.60;3.05;;;15.50;99.90;;;;;;5074631;28;20216;-67
2021/08/07 01:43:50;;;;;;;6.07;2.92;;;15.60;99.90;;;;;;5074790;28;20295;-67
2021/08/07 01:46:20;;;;;;;3.30;3.00;;;15.40;99.90;;;;;;5075130;28;20191;-66
2021/08/07 01:48:55;;;;;;;3.20;2.90;;;15.40;99.90;;;;;;5075187;28;20224;-66
2021/08/07 01:51:26;;;;;;;5.22;3.05;;;15.50;99.90;;;;;;5075107;28;20267;-68
2021/08/07 01:53:57;;;;;;;4.07;3.10;;;15.40;99.90;;;;;;5074331;28;20209;-67
2021/08/07 01:56:29;;;;;;;3.30;3.00;;;15.50;99.90;;;;;;5074511;28;20194;-67
2021/08/07 01:59:00;;;;;;;3.53;3.17;;;15.40;99.90;;;;;;5074991;28;20276;-67
2021/08/07 02:01:31;;;;;;;3.28;2.97;;;15.40;99.90;;;;;;5074424;28;20205;-67
2021/08/07 02:04:01;;;;;;;3.90;3.00;;;15.40;99.90;;;;;;5074823;28;20201;-66
2021/08/07 02:06:30;;;;;;;4.15;3.20;;;15.40;99.90;;;;;;5074807;28;20229;-67
2021/08/07 02:08:59;;;;;;;4.50;4.10;;;15.40;99.90;;;;;;5074311;28;20759;-67
2021/08/07 02:11:27;;;;;;;3.17;2.97;;;15.30;99.90;;;;;;5074542;28;20283;-67
2021/08/07 02:13:56;;;;;;;4.72;2.80;;;15.40;99.90;;;;;;5074637;28;20566;-67
2021/08/07 02:16:26;;;;;;;5.47;3.00;;;15.40;99.90;;;;;;5074558;28;20313;-66
2021/08/07 02:18:56;;;;;;;3.53;2.67;;;15.30;99.90;;;;;;5074605;28;20239;-68
2021/08/07 02:21:24;;;;;;;2.70;2.50;;;15.30;99.90;;;;;;5074514;28;20229;-66
2021/08/07 02:23:52;;;;;;;3.38;2.60;;;15.20;99.90;;;;;;5062079;28;20208;-68
2021/08/07 02:26:23;;;;;;;3.92;2.83;;;15.20;99.90;;;;;;5053972;28;20206;-66
2021/08/07 02:28:52;;;;;;;5.90;3.20;;;15.10;99.90;;;;;;5054064;28;20748;-67
2021/08/07 02:31:20;;;;;;;5.38;3.28;;;15.00;99.90;;;;;;5054002;28;20212;-66
2021/08/07 02:33:49;;;;;;;4.32;3.42;;;15.00;99.90;;;;;;5054054;28;20209;-66
2021/08/07 02:36:19;;;;;;;3.50;3.20;;;15.10;99.90;;;;;;5054222;28;20201;-67
2021/08/07 02:38:47;;;;;;;3.28;2.92;;;15.00;99.90;;;;;;5054260;28;20547;-67
2021/08/07 02:41:15;;;;;;;4.28;3.00;;;15.00;99.90;;;;;;5053861;28;20224;-67
2021/08/07 02:43:43;;;;;;;3.45;3.13;;;15.10;99.90;;;;;;5054136;28;20207;-67
2021/08/07 02:46:12;;;;;;;3.83;2.95;;;15.10;99.90;;;;;;5014786;28;20198;-67
2021/08/07 02:48:41;;;;;;;4.03;3.10;;;15.10;99.90;;;;;;5014591;28;20202;-67
2021/08/07 02:51:09;;;;;;;6.15;3.15;;;15.20;99.90;;;;;;5014248;28;20293;-67
2021/08/07 02:53:38;;;;;;;3.05;2.70;;;15.20;99.90;;;;;;5014050;28;20297;-67
2021/08/07 02:56:06;;;;;;;3.28;2.80;;;15.10;99.90;;;;;;5028698;28;20202;-67
2021/08/07 02:58:34;;;;;;;3.60;2.83;;;15.20;99.90;;;;;;5033803;28;20220;-66
2021/08/07 03:01:02;;;;;;;5.28;2.95;;;15.10;99.90;;;;;;5033669;28;20222;-67
2021/08/07 03:03:30;;;;;;;2.97;2.78;;;15.20;99.90;;;;;;5033503;28;20692;-67
2021/08/07 03:05:58;;;;;;;3.88;2.85;;;15.20;99.90;;;;;;5033822;28;20209;-66
2021/08/07 03:08:26;;;;;;;3.08;2.72;;;15.20;99.90;;;;;;5033550;28;20772;-67
2021/08/07 03:10:55;;;;;;;3.05;2.75;;;15.20;99.90;;;;;;5033225;28;20686;-67
2021/08/07 03:13:23;;;;;;;6.78;2.90;;;15.20;99.90;;;;;;5033170;28;20198;-66
2021/08/07 03:15:51;;;;;;;3.00;2.70;;;15.20;99.90;;;;;;5033382;28;20721;-66
2021/08/07 03:18:19;;;;;;;3.28;2.75;;;15.20;99.90;;;;;;5033456;28;20198;-67
2021/08/07 03:20:46;;;;;;;2.83;2.50;;;15.10;99.90;;;;;;5033019;28;20513;-67
2021/08/07 03:23:14;;;;;;;3.40;3.00;;;15.10;99.90;;;;;;5033288;28;20209;-66
2021/08/07 03:25:42;;;;;;;3.13;2.83;;;15.10;99.90;;;;;;5033228;28;20198;-66
2021/08/07 03:28:11;;;;;;;3.50;3.20;;;15.10;99.90;;;;;;5033400;28;20205;-66
2021/08/07 03:30:39;;;;;;;4.72;2.72;;;15.10;99.90;;;;;;5033310;28;20237;-67
2021/08/07 03:33:07;;;;;;;3.45;2.58;;;15.10;99.90;;;;;;5033055;28;20676;-66
2021/08/07 03:35:34;;;;;;;3.70;3.00;;;15.10;99.90;;;;;;5033211;28;20218;-66
2021/08/07 03:38:02;;;;;;;3.60;2.83;;;15.00;99.90;;;;;;5033020;28;20244;-67
2021/08/07 03:40:30;;;;;;;3.22;2.92;;;15.00;99.90;;;;;;5033003;28;20193;-66
2021/08/07 03:42:58;;;;;;;2.75;2.55;;;15.00;99.90;;;;;;5032605;28;20579;-67
2021/08/07 03:45:27;;;;;;;3.35;2.50;;;15.00;99.90;;;;;;5060084;28;20598;-66
2021/08/07 03:47:57;;;;;;;4.28;2.95;;;15.00;99.90;;;;;;5072521;28;20668;-67
2021/08/07 03:50:24;;;;;;;3.08;2.78;;;15.00;99.90;;;;;;5072489;28;20243;-66
2021/08/07 03:52:52;;;;;;;3.30;2.58;;;14.90;99.90;;;;;;5072207;28;20683;-67
2021/08/07 03:55:20;;;;;;;4.15;2.90;;;14.90;99.90;;;;;;5072656;28;20201;-66
2021/08/07 03:57:53;;;;;;;3.10;2.80;;;14.90;99.90;;;;;;5072612;28;20203;-66
2021/08/07 04:00:23;;;;;;;4.38;2.90;;;14.90;99.90;;;;;;5072160;28;20191;-67
2021/08/07 04:02:52;;;;;;;3.17;2.80;;;14.90;99.90;;;;;;5072515;28;20227;-66
2021/08/07 04:05:20;;;;;;;3.35;3.08;;;14.90;99.90;;;;;;5072702;28;20236;-66
2021/08/07 04:07:48;;;;;;;3.20;2.63;;;15.10;99.90;;;;;;5072124;28;20786;-66
2021/08/07 04:10:18;;;;;;;3.97;2.78;;;15.00;99.90;;;;;;5072405;28;20208;-66
2021/08/07 04:12:46;;;;;;;3.70;2.85;;;15.00;99.90;;;;;;5072305;28;20292;-67
2021/08/07 04:15:14;;;;;;;3.72;2.85;;;15.00;99.90;;;;;;5072270;28;20219;-66
2021/08/07 04:17:42;;;;;;;3.13;2.70;;;15.00;99.90;;;;;;5072436;28;20413;-67
2021/08/07 04:20:12;;;;;;;3.67;3.00;;;15.00;99.90;;;;;;5072308;28;20197;-67
2021/08/07 04:22:40;;;;;;;5.60;3.03;;;15.00;99.90;;;;;;5069482;28;20714;-66
2021/08/07 04:25:09;;;;;;;4.20;2.85;;;15.00;99.90;;;;;;5052240;28;20208;-66
2021/08/07 04:27:37;;;;;;;3.30;3.00;;;15.00;99.90;;;;;;5052123;28;20197;-67
2021/08/07 04:30:08;;;;;;;2.85;2.60;;;15.10;99.90;;;;;;5052108;28;20201;-67
2021/08/07 04:32:36;;;;;;;3.05;2.75;;;15.00;99.90;;;;;;5052349;28;20225;-67
2021/08/07 04:35:05;;;;;;;3.63;2.65;;;15.20;99.90;;;;;;5052126;28;20267;-67
2021/08/07 04:37:44;;;;;;;3.42;2.58;;;15.10;99.90;;;;;;5051885;28;20589;-67
2021/08/07 04:40:14;;;;;;;6.05;3.10;;;15.20;99.90;;;;;;5052070;28;20189;-67
2021/08/07 04:42:42;;;;;;;3.05;2.70;;;15.20;99.90;;;;;;5051811;28;20574;-66
2021/08/07 04:45:10;;;;;;;3.05;2.83;;;15.30;99.90;;;;;;5051683;28;20332;-67
2021/08/07 04:47:50;;;;;;;2.75;2.53;;;15.30;99.90;;;;;;5051653;28;20204;-67
2021/08/07 04:50:19;;;;;;;2.92;2.63;;;15.40;99.90;;;;;;5051952;28;20190;-67
2021/08/07 04:52:49;;;;;;;3.45;2.72;;;15.40;99.90;;;;;;5051053;28;20285;-65
2021/08/07 04:55:17;;;;;;;3.58;2.85;;;15.50;99.90;;;;;;5059628;28;20652;-67
2021/08/07 04:57:45;;;;;;;3.00;2.55;;;15.70;99.90;;;;;;5071903;28;20204;-66
2021/08/07 05:00:14;;;;;;;2.80;2.60;;;15.70;99.90;;;;;;5071671;28;20694;-66
2021/08/07 05:02:41;;;;;;;3.67;2.75;;;15.80;99.90;;;;;;5071873;28;20216;-66
2021/08/07 05:05:10;;;;;;;2.40;2.20;;;16.00;99.90;;;;;;5071830;28;20220;-66
2021/08/07 05:07:38;;;;;;;2.83;2.20;;;16.30;99.90;;;;;;5071695;28;20288;-67
2021/08/07 05:10:09;;;;;;;2.28;2.03;;;16.90;99.90;;;;;;5071800;28;20204;-66
2021/08/07 05:12:38;;;;;;;3.10;1.85;;;17.90;99.90;;;;;;5075137;28;20204;-67
2021/08/07 05:15:07;;;;;;;3.92;1.80;;;18.90;99.90;;;;;;5075758;28;20826;-67
2021/08/07 05:17:35;;;;;;;2.92;1.27;;;19.70;99.90;;;;;;5076040;28;20280;-67
2021/08/07 05:20:04;;;;;;;1.40;1.30;;;20.30;99.90;;;;;;5075893;28;20209;-66
2021/08/07 05:22:32;;;;;;;2.65;1.92;;;20.40;99.90;;;;;;5076545;28;20307;-67
2021/08/07 05:25:00;;;;;;;1.75;1.65;;;20.30;99.90;;;;;;5076873;28;20227;-67
2021/08/07 05:27:29;;;;;;;1.80;1.70;;;20.20;99.90;;;;;;5076169;28;20196;-67
2021/08/07 05:29:57;;;;;;;1.60;1.40;;;19.80;99.90;;;;;;5075664;28;20649;-66
2021/08/07 05:32:24;;;;;;;4.25;1.88;;;19.60;99.90;;;;;;5075960;28;20223;-67
2021/08/07 05:34:52;;;;;;;4.75;1.90;;;19.40;99.90;;;;;;5076248;28;20203;-66
2021/08/07 05:37:20;;;;;;;3.05;1.83;;;19.20;99.90;;;;;;5075907;28;20200;-67
2021/08/07 05:39:47;;;;;;;2.08;1.60;;;19.20;99.90;;;;;;5075794;28;20200;-66
2021/08/07 05:42:15;;;;;;;2.60;1.70;;;19.20;99.90;;;;;;5075682;28;20549;-68
2021/08/07 05:44:44;;;;;;;2.63;1.98;;;19.10;99.90;;;;;;5075538;28;20318;-67
2021/08/07 05:47:12;;;;;;;3.78;1.90;;;18.90;99.90;;;;;;5075779;28;20211;-67
2021/08/07 05:49:40;;;;;;;3.63;1.98;;;18.60;99.90;;;;;;5075358;28;20570;-67
2021/08/07 05:52:08;;;;;;;2.42;1.80;;;18.50;99.90;;;;;;5075675;28;20240;-67
2021/08/07 05:54:36;;;;;;;3.30;1.90;;;18.40;99.90;;;;;;5075365;28;20296;-66
2021/08/07 05:57:04;;;;;;;2.22;1.80;;;18.50;99.90;;;;;;5075174;28;20212;-67
2021/08/07 05:59:31;;;;;;;1.95;1.75;;;18.60;99.90;;;;;;5075233;28;20205;-67
2021/08/07 06:02:02;;;;;;;2.97;1.65;;;18.70;99.90;;;;;;5075108;28;20211;-66
2021/08/07 06:04:30;;;;;;;4.07;1.70;;;19.00;99.90;;;;;;5075298;28;20212;-67
2021/08/07 06:06:58;;;;;;;3.50;1.65;;;19.10;99.90;;;;;;5074951;28;20728;-67
2021/08/07 06:09:26;;;;;;;1.80;1.70;;;19.20;99.90;;;;;;5074804;28;20645;-67
2021/08/07 06:11:54;;;;;;;2.63;1.73;;;19.20;99.90;;;;;;5074849;28;20682;-67
2021/08/07 06:14:21;;;;;;;1.70;1.40;;;19.20;99.90;;;;;;5074873;28;20196;-67
2021/08/07 06:16:49;;;;;;;3.25;1.48;;;19.40;99.90;;;;;;5075345;28;20197;-66
2021/08/07 06:19:18;;;;;;;1.75;1.63;;;19.30;99.90;;;;;;5075202;28;20201;-67
2021/08/07 06:21:47;;;;;;;3.58;1.77;;;19.50;99.90;;;;;;5074516;28;20204;-66
2021/08/07 06:24:15;;;;;;;2.20;1.65;;;19.50;99.90;;;;;;5059249;28;20583;-68
2021/08/07 06:26:43;;;;;;;1.63;1.52;;;19.60;99.90;;;;;;5054866;28;20280;-67
2021/08/07 06:29:13;;;;;;;3.80;1.70;;;19.60;99.90;;;;;;5054964;28;20255;-67
2021/08/07 06:31:41;;;;;;;2.10;1.70;;;19.50;99.90;;;;;;5054277;28;20201;-68
2021/08/07 06:34:09;;;;;;;1.80;1.52;;;19.50;99.90;;;;;;5054921;28;20199;-67
2021/08/07 06:39:31;;;;;;;2.17;1.65;;;19.60;99.90;;;;;;5064386;28;20185;-67
2021/08/07 06:41:59;;;;;;;3.63;1.40;;;19.60;99.90;;;;;;5074670;28;20211;-67
2021/08/07 06:44:27;;;;;;;2.47;1.60;;;19.70;99.90;;;;;;5074273;28;20320;-68
2021/08/07 06:46:55;;;;;;;3.78;1.98;;;19.90;99.90;;;;;;5074350;28;20784;-67
2021/08/07 06:49:22;;;;;;;2.30;1.42;;;19.90;99.90;;;;;;5074617;28;20205;-68
2021/08/07 06:51:52;;;;;;;2.63;1.73;;;19.80;99.90;;;;;;5074634;28;20201;-67
2021/08/07 06:54:20;;;;;;;3.60;1.77;;;19.90;99.90;;;;;;5074162;28;20608;-68
2021/08/07 06:56:49;;;;;;;3.28;1.77;;;20.00;99.90;;;;;;5074264;28;20216;-67
2021/08/07 06:59:17;;;;;;;1.70;1.35;;;20.10;99.90;;;;;;5074122;28;20236;-66
2021/08/07 07:01:45;;;;;;;1.70;1.40;;;20.30;99.90;;;;;;5073967;28;20657;-66
2021/08/07 07:04:13;;;;;;;1.60;1.27;;;20.30;99.90;;;;;;5074094;28;20212;-67
2021/08/07 07:06:40;;;;;;;2.72;1.55;;;20.30;99.90;;;;;;5074194;28;20685;-66
2021/08/07 07:09:08;;;;;;;1.45;1.30;;;20.20;99.90;;;;;;5073654;28;20303;-68
2021/08/07 07:11:37;;;;;;;1.77;1.30;;;20.30;99.90;;;;;;5074450;28;20273;-67
2021/08/07 07:14:06;;;;;;;1.85;1.40;;;20.30;99.90;;;;;;5074566;28;20304;-66
2021/08/07 07:16:34;;;;;;;1.92;1.45;;;20.30;99.90;;;;;;5070426;28;20230;-67
2021/08/07 07:19:02;;;;;;;1.63;1.15;;;20.50;99.90;;;;;;5054212;28;20205;-66
2021/08/07 07:21:30;;;;;;;1.48;1.35;;;20.60;99.90;;;;;;5054011;28;20654;-67
2021/08/07 07:23:58;;;;;;;2.40;1.30;;;20.60;99.90;;;;;;5053332;28;20685;-66
2021/08/07 07:26:27;;;;;;;1.40;1.30;;;20.70;99.90;;;;;;5053766;28;20295;-66
2021/08/07 07:28:55;;;;;;;1.15;1.13;;;20.60;99.90;;;;;;5054292;28;20670;-67
2021/08/07 07:31:25;;;;;;;1.35;1.25;;;20.60;99.90;;;;;;5054226;28;20748;-68
2021/08/07 07:33:54;;;;;;;1.30;1.20;;;20.70;99.90;;;;;;5053317;28;20569;-69
2021/08/07 07:36:22;;;;;;;3.38;1.20;;;20.50;99.90;;;;;;5053758;28;20208;-68
2021/08/07 07:38:50;;;;;;;1.75;1.13;;;20.70;99.90;;;;;;5061295;28;20296;-67
2021/08/07 07:41:18;;;;;;;3.33;1.40;;;20.60;99.90;;;;;;5073829;28;20211;-67
2021/08/07 07:43:46;;;;;;;2.85;1.30;;;20.70;99.90;;;;;;5073615;28;20221;-68
2021/08/07 07:46:14;;;;;;;1.77;1.27;;;20.70;99.90;;;;;;5073238;28;20817;-67
2021/08/07 07:48:43;;;;;;;2.10;1.10;;;20.80;99.90;;;;;;5073195;28;20707;-67
2021/08/07 07:51:11;;;;;;;2.35;1.10;;;20.80;99.90;;;;;;5073284;28;20299;-68
2021/08/07 07:53:39;;;;;;;2.42;1.13;;;20.90;99.90;;;;;;5072653;28;20201;-67
2021/08/07 07:56:07;;;;;;;3.78;1.30;;;21.00;99.90;;;;;;5073173;28;20203;-68
2021/08/07 07:58:35;;;;;;;1.40;1.30;;;21.30;99.90;;;;;;5072974;28;20291;-68
2021/08/07 08:01:02;;;;;;;1.52;1.15;;;21.20;99.90;;;;;;5073099;28;20328;-67
2021/08/07 08:03:31;;;;;;;2.03;1.40;;;21.40;99.90;;;;;;5072972;28;20235;-68
2021/08/07 08:06:00;;;;;;;1.20;1.00;;;21.30;99.90;;;;;;5073099;28;20557;-67
2021/08/07 08:08:28;;;;;;;1.83;1.27;;;21.30;99.90;;;;;;5067941;28;20235;-68
2021/08/07 08:10:56;;;;;;;2.13;1.25;;;21.40;99.90;;;;;;5052708;28;20197;-68
2021/08/07 08:13:23;;;;;;;1.40;1.30;;;21.50;99.90;;;;;;5052899;28;20623;-68
2021/08/07 08:15:51;;;;;;;1.20;1.00;;;21.60;99.90;;;;;;5052512;28;20665;-67
2021/08/07 08:18:20;;;;;;;1.23;1.00;;;21.70;99.90;;;;;;5052737;28;20259;-68
